sensor_id;sensor_type;location;lat;lon;timestamp;P1;durP1;ratioP1;P2;durP2;ratioP2
37805;SDS011;25082;50.870;0.022;2022-08-25T00:02:25;10.70;;;8.23;;
37805;SDS011;25082;50.870;0.022;2022-08-25T00:04:51;11.38;;;8.13;;
37805;SDS011;25082;50.870;0.022;2022-08-25T00:07:17;11.30;;;8.05;;
37805;SDS011;25082;50.870;0.022;2022-08-25T00:09:42;10.88;;;8.18;;
37805;SDS011;25082;50.870;0.022;2022-08-25T00:12:09;10.57;;;7.30;;
37805;SDS011;25082;50.870;0.022;2022-08-25T00:14:36;10.75;;;7.72;;
37805;SDS011;25082;50.870;0.022;2022-08-25T00:17:02;11.02;;;7.18;;
37805;SDS011;25082;50.870;0.022;2022-08-25T00:19:30;11.82;;;7.45;;
37805;SDS011;25082;50.870;0.022;2022-08-25T00:21:58;9.98;;;6.90;;
37805;SDS011;25082;50.870;0.022;2022-08-25T00:24:25;9.95;;;7.35;;
37805;SDS011;25082;50.870;0.022;2022-08-25T00:26:53;12.90;;;7.28;;
37805;SDS011;25082;50.870;0.022;2022-08-25T00:29:21;10.07;;;6.35;;
37805;SDS011;25082;50.870;0.022;2022-08-25T00:31:52;10.10;;;6.63;;
37805;SDS011;25082;50.870;0.022;2022-08-25T00:34:21;8.07;;;5.85;;
37805;SDS011;25082;50.870;0.022;2022-08-25T00:39:17;11.10;;;6.15;;
37805;SDS011;25082;50.870;0.022;2022-08-25T00:41:45;8.23;;;6.07;;
37805;SDS011;25082;50.870;0.022;2022-08-25T00:44:13;11.25;;;6.32;;
37805;SDS011;25082;50.870;0.022;2022-08-25T00:46:46;7.88;;;5.65;;
37805;SDS011;25082;50.870;0.022;2022-08-25T00:49:18;7.88;;;5.68;;
37805;SDS011;25082;50.870;0.022;2022-08-25T00:51:53;7.07;;;5.45;;
37805;SDS011;25082;50.870;0.022;2022-08-25T00:54:24;8.32;;;5.55;;
37805;SDS011;25082;50.870;0.022;2022-08-25T00:56:54;5.63;;;4.80;;
37805;SDS011;25082;50.870;0.022;2022-08-25T00:59:22;11.02;;;6.20;;
37805;SDS011;25082;50.870;0.022;2022-08-25T01:01:50;9.90;;;5.70;;
37805;SDS011;25082;50.870;0.022;2022-08-25T01:04:18;9.00;;;5.15;;
37805;SDS011;25082;50.870;0.022;2022-08-25T01:06:44;7.47;;;5.40;;
37805;SDS011;25082;50.870;0.022;2022-08-25T01:09:12;7.00;;;5.18;;
37805;SDS011;25082;50.870;0.022;2022-08-25T01:11:39;7.40;;;4.97;;
37805;SDS011;25082;50.870;0.022;2022-08-25T01:14:06;7.72;;;5.30;;
37805;SDS011;25082;50.870;0.022;2022-08-25T01:16:34;7.55;;;5.40;;
37805;SDS011;25082;50.870;0.022;2022-08-25T01:19:02;9.07;;;5.35;;
37805;SDS011;25082;50.870;0.022;2022-08-25T01:21:29;7.00;;;4.65;;
37805;SDS011;25082;50.870;0.022;2022-08-25T01:24:01;6.40;;;4.70;;
37805;SDS011;25082;50.870;0.022;2022-08-25T01:26:29;7.55;;;4.75;;
37805;SDS011;25082;50.870;0.022;2022-08-25T01:28:57;6.43;;;5.15;;
37805;SDS011;25082;50.870;0.022;2022-08-25T01:31:42;5.82;;;4.63;;
37805;SDS011;25082;50.870;0.022;2022-08-25T01:34:09;6.82;;;4.03;;
37805;SDS011;25082;50.870;0.022;2022-08-25T01:36:40;6.75;;;4.15;;
37805;SDS011;25082;50.870;0.022;2022-08-25T01:39:07;7.18;;;4.55;;
37805;SDS011;25082;50.870;0.022;2022-08-25T01:44:04;5.63;;;3.93;;
37805;SDS011;25082;50.870;0.022;2022-08-25T01:46:31;5.68;;;4.13;;
37805;SDS011;25082;50.870;0.022;2022-08-25T01:48:57;6.82;;;3.88;;
37805;SDS011;25082;50.870;0.022;2022-08-25T01:51:25;5.90;;;4.22;;
37805;SDS011;25082;50.870;0.022;2022-08-25T01:53:54;4.97;;;3.60;;
37805;SDS011;25082;50.870;0.022;2022-08-25T01:56:20;5.72;;;4.13;;
37805;SDS011;25082;50.870;0.022;2022-08-25T01:58:47;5.53;;;4.07;;
37805;SDS011;25082;50.870;0.022;2022-08-25T02:01:16;8.10;;;3.78;;
37805;SDS011;25082;50.870;0.022;2022-08-25T02:03:44;5.60;;;4.32;;
37805;SDS011;25082;50.870;0.022;2022-08-25T02:06:12;4.32;;;3.60;;
37805;SDS011;25082;50.870;0.022;2022-08-25T02:08:42;6.25;;;3.70;;
37805;SDS011;25082;50.870;0.022;2022-08-25T02:11:09;4.93;;;3.28;;
37805;SDS011;25082;50.870;0.022;2022-08-25T02:13:36;7.13;;;4.22;;
37805;SDS011;25082;50.870;0.022;2022-08-25T02:16:04;5.28;;;3.67;;
37805;SDS011;25082;50.870;0.022;2022-08-25T02:18:30;5.60;;;3.55;;
37805;SDS011;25082;50.870;0.022;2022-08-25T02:20:56;4.80;;;3.42;;
37805;SDS011;25082;50.870;0.022;2022-08-25T02:23:22;3.67;;;3.05;;
37805;SDS011;25082;50.870;0.022;2022-08-25T02:25:47;5.43;;;4.00;;
37805;SDS011;25082;50.870;0.022;2022-08-25T02:28:13;4.32;;;3.83;;
37805;SDS011;25082;50.870;0.022;2022-08-25T02:30:40;4.80;;;3.50;;
37805;SDS011;25082;50.870;0.022;2022-08-25T02:33:06;5.13;;;3.85;;
37805;SDS011;25082;50.870;0.022;2022-08-25T02:35:33;4.70;;;3.35;;
37805;SDS011;25082;50.870;0.022;2022-08-25T02:37:59;4.97;;;3.60;;
37805;SDS011;25082;50.870;0.022;2022-08-25T02:40:25;4.00;;;3.40;;
37805;SDS011;25082;50.870;0.022;2022-08-25T02:42:51;4.10;;;3.28;;
37805;SDS011;25082;50.870;0.022;2022-08-25T02:45:19;5.45;;;3.60;;
37805;SDS011;25082;50.870;0.022;2022-08-25T02:47:45;4.95;;;3.40;;
37805;SDS011;25082;50.870;0.022;2022-08-25T02:50:11;4.28;;;3.33;;
37805;SDS011;25082;50.870;0.022;2022-08-25T02:52:37;4.75;;;3.28;;
37805;SDS011;25082;50.870;0.022;2022-08-25T02:55:06;4.97;;;3.10;;
37805;SDS011;25082;50.870;0.022;2022-08-25T02:57:34;4.38;;;3.40;;
37805;SDS011;25082;50.870;0.022;2022-08-25T03:00:00;3.17;;;2.88;;
37805;SDS011;25082;50.870;0.022;2022-08-25T03:02:26;4.80;;;3.40;;
37805;SDS011;25082;50.870;0.022;2022-08-25T03:04:52;4.35;;;3.20;;
37805;SDS011;25082;50.870;0.022;2022-08-25T03:07:19;5.32;;;3.35;;
37805;SDS011;25082;50.870;0.022;2022-08-25T03:09:46;4.57;;;3.20;;
37805;SDS011;25082;50.870;0.022;2022-08-25T03:12:12;3.88;;;3.08;;
37805;SDS011;25082;50.870;0.022;2022-08-25T03:14:38;3.85;;;2.72;;
37805;SDS011;25082;50.870;0.022;2022-08-25T03:17:08;4.40;;;2.90;;
37805;SDS011;25082;50.870;0.022;2022-08-25T03:19:34;4.78;;;2.97;;
37805;SDS011;25082;50.870;0.022;2022-08-25T03:21:59;4.80;;;2.90;;
37805;SDS011;25082;50.870;0.022;2022-08-25T03:24:25;4.00;;;2.97;;
37805;SDS011;25082;50.870;0.022;2022-08-25T03:26:52;3.10;;;2.63;;
37805;SDS011;25082;50.870;0.022;2022-08-25T03:29:19;3.83;;;2.65;;
37805;SDS011;25082;50.870;0.022;2022-08-25T03:31:47;4.20;;;2.83;;
37805;SDS011;25082;50.870;0.022;2022-08-25T03:34:14;3.38;;;2.67;;
37805;SDS011;25082;50.870;0.022;2022-08-25T03:36:44;4.65;;;3.20;;
37805;SDS011;25082;50.870;0.022;2022-08-25T03:39:12;3.65;;;2.70;;
37805;SDS011;25082;50.870;0.022;2022-08-25T03:41:38;4.72;;;3.03;;
37805;SDS011;25082;50.870;0.022;2022-08-25T03:44:04;4.45;;;3.20;;
37805;SDS011;25082;50.870;0.022;2022-08-25T03:46:42;4.40;;;2.55;;
37805;SDS011;25082;50.870;0.022;2022-08-25T03:49:11;3.78;;;2.55;;
37805;SDS011;25082;50.870;0.022;2022-08-25T03:51:41;3.83;;;2.97;;
37805;SDS011;25082;50.870;0.022;2022-08-25T03:54:09;4.03;;;2.80;;
37805;SDS011;25082;50.870;0.022;2022-08-25T03:56:36;4.25;;;2.80;;
37805;SDS011;25082;50.870;0.022;2022-08-25T03:59:02;5.00;;;2.90;;
37805;SDS011;25082;50.870;0.022;2022-08-25T04:01:28;3.00;;;2.70;;
37805;SDS011;25082;50.870;0.022;2022-08-25T04:03:54;3.08;;;2.45;;
37805;SDS011;25082;50.870;0.022;2022-08-25T04:06:20;4.57;;;2.72;;
37805;SDS011;25082;50.870;0.022;2022-08-25T04:08:46;3.58;;;2.60;;
37805;SDS011;25082;50.870;0.022;2022-08-25T04:11:15;4.75;;;2.70;;
37805;SDS011;25082;50.870;0.022;2022-08-25T04:13:43;4.85;;;3.03;;
37805;SDS011;25082;50.870;0.022;2022-08-25T04:16:18;7.60;;;3.08;;
37805;SDS011;25082;50.870;0.022;2022-08-25T04:18:50;3.30;;;2.20;;
37805;SDS011;25082;50.870;0.022;2022-08-25T04:21:17;5.43;;;2.70;;
37805;SDS011;25082;50.870;0.022;2022-08-25T04:23:44;4.65;;;2.70;;
37805;SDS011;25082;50.870;0.022;2022-08-25T04:26:35;3.13;;;2.25;;
37805;SDS011;25082;50.870;0.022;2022-08-25T04:29:13;4.88;;;2.90;;
37805;SDS011;25082;50.870;0.022;2022-08-25T04:31:42;5.05;;;2.60;;
37805;SDS011;25082;50.870;0.022;2022-08-25T04:34:10;3.83;;;2.67;;
37805;SDS011;25082;50.870;0.022;2022-08-25T04:36:37;6.05;;;2.78;;
37805;SDS011;25082;50.870;0.022;2022-08-25T04:39:04;5.10;;;2.70;;
37805;SDS011;25082;50.870;0.022;2022-08-25T04:41:30;4.35;;;2.50;;
37805;SDS011;25082;50.870;0.022;2022-08-25T04:43:57;4.53;;;2.35;;
37805;SDS011;25082;50.870;0.022;2022-08-25T04:46:25;2.55;;;1.77;;
37805;SDS011;25082;50.870;0.022;2022-08-25T04:48:52;6.22;;;2.80;;
37805;SDS011;25082;50.870;0.022;2022-08-25T04:51:21;5.63;;;2.47;;
37805;SDS011;25082;50.870;0.022;2022-08-25T04:53:50;3.05;;;2.10;;
37805;SDS011;25082;50.870;0.022;2022-08-25T04:56:20;3.22;;;1.92;;
37805;SDS011;25082;50.870;0.022;2022-08-25T04:58:50;4.78;;;2.15;;
37805;SDS011;25082;50.870;0.022;2022-08-25T05:01:19;3.20;;;2.30;;
37805;SDS011;25082;50.870;0.022;2022-08-25T05:03:47;4.30;;;2.70;;
37805;SDS011;25082;50.870;0.022;2022-08-25T05:06:17;4.30;;;2.60;;
37805;SDS011;25082;50.870;0.022;2022-08-25T05:08:43;3.30;;;2.22;;
37805;SDS011;25082;50.870;0.022;2022-08-25T05:11:10;3.53;;;2.13;;
37805;SDS011;25082;50.870;0.022;2022-08-25T05:13:38;2.15;;;1.75;;
37805;SDS011;25082;50.870;0.022;2022-08-25T05:16:05;3.50;;;2.17;;
37805;SDS011;25082;50.870;0.022;2022-08-25T05:18:32;3.38;;;1.80;;
37805;SDS011;25082;50.870;0.022;2022-08-25T05:21:02;3.90;;;2.25;;
37805;SDS011;25082;50.870;0.022;2022-08-25T05:23:29;3.17;;;1.85;;
37805;SDS011;25082;50.870;0.022;2022-08-25T05:25:59;4.70;;;2.13;;
37805;SDS011;25082;50.870;0.022;2022-08-25T05:28:30;3.70;;;1.98;;
37805;SDS011;25082;50.870;0.022;2022-08-25T05:30:56;4.50;;;2.25;;
37805;SDS011;25082;50.870;0.022;2022-08-25T05:33:23;3.50;;;1.98;;
37805;SDS011;25082;50.870;0.022;2022-08-25T05:35:49;4.10;;;2.13;;
37805;SDS011;25082;50.870;0.022;2022-08-25T05:38:16;4.90;;;2.25;;
37805;SDS011;25082;50.870;0.022;2022-08-25T05:40:42;4.18;;;1.70;;
37805;SDS011;25082;50.870;0.022;2022-08-25T05:43:08;3.03;;;1.75;;
37805;SDS011;25082;50.870;0.022;2022-08-25T05:45:34;4.03;;;1.92;;
37805;SDS011;25082;50.870;0.022;2022-08-25T05:48:00;3.42;;;1.95;;
37805;SDS011;25082;50.870;0.022;2022-08-25T05:50:26;3.22;;;1.85;;
37805;SDS011;25082;50.870;0.022;2022-08-25T05:52:52;3.72;;;2.33;;
37805;SDS011;25082;50.870;0.022;2022-08-25T05:55:18;4.28;;;2.00;;
37805;SDS011;25082;50.870;0.022;2022-08-25T05:57:44;3.17;;;1.70;;
37805;SDS011;25082;50.870;0.022;2022-08-25T06:00:10;2.38;;;1.60;;
37805;SDS011;25082;50.870;0.022;2022-08-25T06:02:36;3.00;;;1.88;;
37805;SDS011;25082;50.870;0.022;2022-08-25T06:05:16;5.40;;;2.10;;
37805;SDS011;25082;50.870;0.022;2022-08-25T06:07:44;3.80;;;1.77;;
37805;SDS011;25082;50.870;0.022;2022-08-25T06:10:11;4.72;;;1.90;;
37805;SDS011;25082;50.870;0.022;2022-08-25T06:12:38;2.58;;;1.65;;
37805;SDS011;25082;50.870;0.022;2022-08-25T06:15:08;3.72;;;1.95;;
37805;SDS011;25082;50.870;0.022;2022-08-25T06:17:35;2.88;;;1.60;;
37805;SDS011;25082;50.870;0.022;2022-08-25T06:20:05;2.83;;;1.48;;
37805;SDS011;25082;50.870;0.022;2022-08-25T06:22:33;2.80;;;1.13;;
37805;SDS011;25082;50.870;0.022;2022-08-25T06:24:59;2.88;;;1.60;;
37805;SDS011;25082;50.870;0.022;2022-08-25T06:27:24;3.35;;;1.95;;
37805;SDS011;25082;50.870;0.022;2022-08-25T06:29:50;2.53;;;1.48;;
37805;SDS011;25082;50.870;0.022;2022-08-25T06:32:16;2.35;;;1.60;;
37805;SDS011;25082;50.870;0.022;2022-08-25T06:34:41;2.80;;;1.48;;
37805;SDS011;25082;50.870;0.022;2022-08-25T06:37:07;3.33;;;1.63;;
37805;SDS011;25082;50.870;0.022;2022-08-25T06:39:33;2.15;;;1.33;;
37805;SDS011;25082;50.870;0.022;2022-08-25T06:41:59;5.25;;;1.30;;
37805;SDS011;25082;50.870;0.022;2022-08-25T06:44:25;2.30;;;1.42;;
37805;SDS011;25082;50.870;0.022;2022-08-25T06:46:51;3.65;;;1.85;;
37805;SDS011;25082;50.870;0.022;2022-08-25T06:49:18;3.20;;;1.65;;
37805;SDS011;25082;50.870;0.022;2022-08-25T06:51:44;3.47;;;1.55;;
37805;SDS011;25082;50.870;0.022;2022-08-25T06:54:10;2.10;;;1.33;;
37805;SDS011;25082;50.870;0.022;2022-08-25T06:56:38;1.90;;;1.20;;
37805;SDS011;25082;50.870;0.022;2022-08-25T06:59:05;4.82;;;1.30;;
37805;SDS011;25082;50.870;0.022;2022-08-25T07:01:33;2.63;;;1.60;;
37805;SDS011;25082;50.870;0.022;2022-08-25T07:04:00;3.30;;;1.40;;
37805;SDS011;25082;50.870;0.022;2022-08-25T07:06:28;2.75;;;1.50;;
37805;SDS011;25082;50.870;0.022;2022-08-25T07:09:05;2.28;;;1.23;;
37805;SDS011;25082;50.870;0.022;2022-08-25T07:11:35;2.97;;;1.35;;
37805;SDS011;25082;50.870;0.022;2022-08-25T07:14:02;2.17;;;1.17;;
37805;SDS011;25082;50.870;0.022;2022-08-25T07:16:30;3.75;;;1.88;;
37805;SDS011;25082;50.870;0.022;2022-08-25T07:18:57;4.72;;;1.77;;
37805;SDS011;25082;50.870;0.022;2022-08-25T07:21:24;2.80;;;1.60;;
37805;SDS011;25082;50.870;0.022;2022-08-25T07:23:51;2.45;;;1.20;;
37805;SDS011;25082;50.870;0.022;2022-08-25T07:26:22;3.72;;;1.40;;
37805;SDS011;25082;50.870;0.022;2022-08-25T07:28:50;4.93;;;1.42;;
37805;SDS011;25082;50.870;0.022;2022-08-25T07:31:17;1.88;;;1.20;;
37805;SDS011;25082;50.870;0.022;2022-08-25T07:33:42;3.90;;;1.75;;
37805;SDS011;25082;50.870;0.022;2022-08-25T07:36:26;2.33;;;1.20;;
37805;SDS011;25082;50.870;0.022;2022-08-25T07:38:53;2.17;;;1.17;;
37805;SDS011;25082;50.870;0.022;2022-08-25T07:41:19;3.20;;;1.30;;
37805;SDS011;25082;50.870;0.022;2022-08-25T07:43:44;2.38;;;1.23;;
37805;SDS011;25082;50.870;0.022;2022-08-25T07:46:11;3.63;;;1.42;;
37805;SDS011;25082;50.870;0.022;2022-08-25T07:48:37;3.42;;;1.55;;
37805;SDS011;25082;50.870;0.022;2022-08-25T07:51:07;2.72;;;1.33;;
37805;SDS011;25082;50.870;0.022;2022-08-25T07:53:34;2.78;;;1.30;;
37805;SDS011;25082;50.870;0.022;2022-08-25T07:56:00;2.65;;;1.10;;
37805;SDS011;25082;50.870;0.022;2022-08-25T07:58:26;5.13;;;1.15;;
37805;SDS011;25082;50.870;0.022;2022-08-25T08:00:53;1.77;;;1.00;;
37805;SDS011;25082;50.870;0.022;2022-08-25T08:03:18;3.50;;;1.00;;
37805;SDS011;25082;50.870;0.022;2022-08-25T08:05:45;4.95;;;1.50;;
37805;SDS011;25082;50.870;0.022;2022-08-25T08:08:11;6.65;;;1.40;;
37805;SDS011;25082;50.870;0.022;2022-08-25T08:10:38;6.30;;;1.50;;
37805;SDS011;25082;50.870;0.022;2022-08-25T08:13:05;3.42;;;1.40;;
37805;SDS011;25082;50.870;0.022;2022-08-25T08:15:31;3.92;;;1.30;;
37805;SDS011;25082;50.870;0.022;2022-08-25T08:17:57;10.25;;;2.10;;
37805;SDS011;25082;50.870;0.022;2022-08-25T08:20:23;9.27;;;1.92;;
37805;SDS011;25082;50.870;0.022;2022-08-25T08:22:50;6.35;;;1.92;;
37805;SDS011;25082;50.870;0.022;2022-08-25T08:25:16;4.88;;;1.65;;
37805;SDS011;25082;50.870;0.022;2022-08-25T08:27:42;5.72;;;1.17;;
37805;SDS011;25082;50.870;0.022;2022-08-25T08:30:09;6.13;;;1.35;;
37805;SDS011;25082;50.870;0.022;2022-08-25T08:32:36;4.80;;;1.45;;
37805;SDS011;25082;50.870;0.022;2022-08-25T08:35:02;8.50;;;1.65;;
37805;SDS011;25082;50.870;0.022;2022-08-25T08:37:30;15.27;;;2.25;;
37805;SDS011;25082;50.870;0.022;2022-08-25T08:39:56;6.93;;;1.33;;
37805;SDS011;25082;50.870;0.022;2022-08-25T08:45:21;5.68;;;1.35;;
37805;SDS011;25082;50.870;0.022;2022-08-25T08:50:44;4.90;;;2.10;;
37805;SDS011;25082;50.870;0.022;2022-08-25T08:55:50;14.02;;;2.00;;
37805;SDS011;25082;50.870;0.022;2022-08-25T09:00:53;13.23;;;2.20;;
37805;SDS011;25082;50.870;0.022;2022-08-25T09:03:26;21.33;;;3.80;;
37805;SDS011;25082;50.870;0.022;2022-08-25T09:05:54;18.80;;;3.03;;
37805;SDS011;25082;50.870;0.022;2022-08-25T09:08:23;10.50;;;2.38;;
37805;SDS011;25082;50.870;0.022;2022-08-25T09:16:15;10.48;;;2.40;;
37805;SDS011;25082;50.870;0.022;2022-08-25T09:19:19;8.52;;;2.15;;
37805;SDS011;25082;50.870;0.022;2022-08-25T09:30:46;4.70;;;2.55;;
37805;SDS011;25082;50.870;0.022;2022-08-25T09:33:28;4.10;;;2.03;;
37805;SDS011;25082;50.870;0.022;2022-08-25T09:35:57;10.55;;;2.55;;
37805;SDS011;25082;50.870;0.022;2022-08-25T09:38:24;6.72;;;2.63;;
37805;SDS011;25082;50.870;0.022;2022-08-25T09:40:53;8.02;;;2.90;;
37805;SDS011;25082;50.870;0.022;2022-08-25T09:46:14;6.95;;;2.70;;
37805;SDS011;25082;50.870;0.022;2022-08-25T09:48:52;7.60;;;2.92;;
37805;SDS011;25082;50.870;0.022;2022-08-25T09:53:58;10.15;;;3.10;;
37805;SDS011;25082;50.870;0.022;2022-08-25T09:59:20;7.55;;;2.90;;
37805;SDS011;25082;50.870;0.022;2022-08-25T10:01:48;5.65;;;2.65;;
37805;SDS011;25082;50.870;0.022;2022-08-25T10:04:29;5.78;;;2.90;;
37805;SDS011;25082;50.870;0.022;2022-08-25T10:06:57;7.47;;;3.28;;
37805;SDS011;25082;50.870;0.022;2022-08-25T10:09:32;7.65;;;3.45;;
37805;SDS011;25082;50.870;0.022;2022-08-25T10:12:13;6.13;;;2.75;;
37805;SDS011;25082;50.870;0.022;2022-08-25T10:14:41;5.47;;;2.90;;
37805;SDS011;25082;50.870;0.022;2022-08-25T10:17:30;5.45;;;2.72;;
37805;SDS011;25082;50.870;0.022;2022-08-25T10:22:35;5.18;;;2.78;;
37805;SDS011;25082;50.870;0.022;2022-08-25T10:25:05;3.92;;;2.70;;
37805;SDS011;25082;50.870;0.022;2022-08-25T10:30:07;4.85;;;2.80;;
37805;SDS011;25082;50.870;0.022;2022-08-25T10:47:05;5.15;;;2.65;;
37805;SDS011;25082;50.870;0.022;2022-08-25T10:49:47;4.88;;;2.50;;
37805;SDS011;25082;50.870;0.022;2022-08-25T10:55:07;4.53;;;2.22;;
37805;SDS011;25082;50.870;0.022;2022-08-25T10:57:56;5.78;;;2.40;;
37805;SDS011;25082;50.870;0.022;2022-08-25T11:00:39;7.10;;;2.67;;
37805;SDS011;25082;50.870;0.022;2022-08-25T11:05:46;5.78;;;2.88;;
37805;SDS011;25082;50.870;0.022;2022-08-25T11:11:30;4.95;;;2.75;;
37805;SDS011;25082;50.870;0.022;2022-08-25T11:14:20;3.95;;;2.70;;
37805;SDS011;25082;50.870;0.022;2022-08-25T11:19:35;4.47;;;3.13;;
37805;SDS011;25082;50.870;0.022;2022-08-25T11:25:01;3.42;;;2.55;;
37805;SDS011;25082;50.870;0.022;2022-08-25T11:30:11;6.22;;;3.28;;
37805;SDS011;25082;50.870;0.022;2022-08-25T11:35:10;6.88;;;3.25;;
37805;SDS011;25082;50.870;0.022;2022-08-25T11:37:41;5.80;;;3.28;;
37805;SDS011;25082;50.870;0.022;2022-08-25T11:40:29;5.90;;;3.00;;
37805;SDS011;25082;50.870;0.022;2022-08-25T11:52:03;4.82;;;2.53;;
37805;SDS011;25082;50.870;0.022;2022-08-25T11:54:50;5.60;;;2.85;;
37805;SDS011;25082;50.870;0.022;2022-08-25T11:57:23;5.18;;;2.80;;
37805;SDS011;25082;50.870;0.022;2022-08-25T12:10:19;9.68;;;3.63;;
37805;SDS011;25082;50.870;0.022;2022-08-25T12:17:39;4.68;;;1.85;;
37805;SDS011;25082;50.870;0.022;2022-08-25T12:20:05;3.03;;;2.30;;
37805;SDS011;25082;50.870;0.022;2022-08-25T12:24:59;5.38;;;2.15;;
37805;SDS011;25082;50.870;0.022;2022-08-25T12:30:29;5.68;;;2.95;;
37805;SDS011;25082;50.870;0.022;2022-08-25T12:36:34;3.05;;;2.75;;
37805;SDS011;25082;50.870;0.022;2022-08-25T12:39:17;4.28;;;3.38;;
37805;SDS011;25082;50.870;0.022;2022-08-25T12:42:00;10.15;;;3.28;;
37805;SDS011;25082;50.870;0.022;2022-08-25T12:44:37;4.93;;;2.80;;
37805;SDS011;25082;50.870;0.022;2022-08-25T12:47:13;2.58;;;1.92;;
37805;SDS011;25082;50.870;0.022;2022-08-25T12:49:51;2.70;;;1.88;;
37805;SDS011;25082;50.870;0.022;2022-08-25T12:52:17;1.55;;;1.45;;
37805;SDS011;25082;50.870;0.022;2022-08-25T12:54:49;2.10;;;1.50;;
37805;SDS011;25082;50.870;0.022;2022-08-25T12:57:24;2.30;;;1.40;;
37805;SDS011;25082;50.870;0.022;2022-08-25T13:11:01;2.95;;;1.85;;
37805;SDS011;25082;50.870;0.022;2022-08-25T13:16:25;3.13;;;1.27;;
37805;SDS011;25082;50.870;0.022;2022-08-25T13:18:53;3.47;;;1.30;;
37805;SDS011;25082;50.870;0.022;2022-08-25T13:21:39;1.45;;;1.25;;
37805;SDS011;25082;50.870;0.022;2022-08-25T13:24:11;2.90;;;1.50;;
37805;SDS011;25082;50.870;0.022;2022-08-25T13:26:43;7.22;;;1.85;;
37805;SDS011;25082;50.870;0.022;2022-08-25T13:29:15;3.88;;;1.83;;
37805;SDS011;25082;50.870;0.022;2022-08-25T13:34:22;5.68;;;2.10;;
37805;SDS011;25082;50.870;0.022;2022-08-25T13:36:51;6.30;;;1.75;;
37805;SDS011;25082;50.870;0.022;2022-08-25T13:39:35;2.15;;;1.50;;
37805;SDS011;25082;50.870;0.022;2022-08-25T13:42:03;2.20;;;1.52;;
37805;SDS011;25082;50.870;0.022;2022-08-25T13:44:34;3.13;;;1.73;;
37805;SDS011;25082;50.870;0.022;2022-08-25T13:50:06;3.42;;;1.33;;
37805;SDS011;25082;50.870;0.022;2022-08-25T13:52:55;2.08;;;1.48;;
37805;SDS011;25082;50.870;0.022;2022-08-25T13:55:23;1.73;;;1.40;;
37805;SDS011;25082;50.870;0.022;2022-08-25T13:57:58;2.30;;;1.52;;
37805;SDS011;25082;50.870;0.022;2022-08-25T14:00:27;4.80;;;1.80;;
37805;SDS011;25082;50.870;0.022;2022-08-25T14:02:56;2.88;;;1.50;;
37805;SDS011;25082;50.870;0.022;2022-08-25T14:05:33;3.20;;;1.75;;
37805;SDS011;25082;50.870;0.022;2022-08-25T14:08:05;4.28;;;1.90;;
37805;SDS011;25082;50.870;0.022;2022-08-25T14:10:50;3.25;;;1.88;;
37805;SDS011;25082;50.870;0.022;2022-08-25T14:13:34;2.90;;;1.80;;
37805;SDS011;25082;50.870;0.022;2022-08-25T14:18:38;3.75;;;2.08;;
37805;SDS011;25082;50.870;0.022;2022-08-25T14:21:13;1.90;;;1.50;;
37805;SDS011;25082;50.870;0.022;2022-08-25T14:23:39;2.67;;;1.60;;
37805;SDS011;25082;50.870;0.022;2022-08-25T14:26:06;3.17;;;1.50;;
37805;SDS011;25082;50.870;0.022;2022-08-25T14:28:31;3.15;;;1.42;;
37805;SDS011;25082;50.870;0.022;2022-08-25T14:30:59;3.47;;;1.40;;
37805;SDS011;25082;50.870;0.022;2022-08-25T14:33:57;1.30;;;1.20;;
37805;SDS011;25082;50.870;0.022;2022-08-25T14:36:32;6.60;;;1.20;;
37805;SDS011;25082;50.870;0.022;2022-08-25T14:38:58;6.57;;;2.03;;
37805;SDS011;25082;50.870;0.022;2022-08-25T14:41:29;3.60;;;1.50;;
37805;SDS011;25082;50.870;0.022;2022-08-25T14:43:56;5.35;;;1.52;;
37805;SDS011;25082;50.870;0.022;2022-08-25T14:46:22;2.47;;;1.48;;
37805;SDS011;25082;50.870;0.022;2022-08-25T14:48:52;3.05;;;1.30;;
37805;SDS011;25082;50.870;0.022;2022-08-25T14:51:21;4.88;;;1.50;;
37805;SDS011;25082;50.870;0.022;2022-08-25T14:53:48;3.42;;;1.30;;
37805;SDS011;25082;50.870;0.022;2022-08-25T14:56:16;4.88;;;1.45;;
37805;SDS011;25082;50.870;0.022;2022-08-25T14:58:42;2.42;;;0.90;;
37805;SDS011;25082;50.870;0.022;2022-08-25T15:01:10;4.28;;;1.25;;
37805;SDS011;25082;50.870;0.022;2022-08-25T15:03:38;1.98;;;1.23;;
37805;SDS011;25082;50.870;0.022;2022-08-25T15:06:07;1.98;;;1.23;;
37805;SDS011;25082;50.870;0.022;2022-08-25T15:08:36;5.35;;;1.13;;
37805;SDS011;25082;50.870;0.022;2022-08-25T15:11:21;2.15;;;1.00;;
37805;SDS011;25082;50.870;0.022;2022-08-25T15:13:46;2.65;;;1.20;;
37805;SDS011;25082;50.870;0.022;2022-08-25T15:16:14;2.13;;;1.00;;
37805;SDS011;25082;50.870;0.022;2022-08-25T15:19:07;4.03;;;1.27;;
37805;SDS011;25082;50.870;0.022;2022-08-25T15:21:38;4.28;;;1.05;;
37805;SDS011;25082;50.870;0.022;2022-08-25T15:24:04;1.38;;;1.20;;
37805;SDS011;25082;50.870;0.022;2022-08-25T15:26:32;5.45;;;1.42;;
37805;SDS011;25082;50.870;0.022;2022-08-25T15:29:04;3.95;;;1.55;;
37805;SDS011;25082;50.870;0.022;2022-08-25T15:31:30;3.33;;;1.45;;
37805;SDS011;25082;50.870;0.022;2022-08-25T15:33:56;3.28;;;1.45;;
37805;SDS011;25082;50.870;0.022;2022-08-25T15:36:23;3.35;;;1.38;;
37805;SDS011;25082;50.870;0.022;2022-08-25T15:38:50;2.78;;;1.42;;
37805;SDS011;25082;50.870;0.022;2022-08-25T15:41:16;2.53;;;1.50;;
37805;SDS011;25082;50.870;0.022;2022-08-25T15:43:43;5.03;;;1.83;;
37805;SDS011;25082;50.870;0.022;2022-08-25T15:46:09;7.93;;;1.92;;
37805;SDS011;25082;50.870;0.022;2022-08-25T15:48:38;13.15;;;2.17;;
37805;SDS011;25082;50.870;0.022;2022-08-25T15:51:04;3.70;;;1.40;;
37805;SDS011;25082;50.870;0.022;2022-08-25T15:53:32;5.63;;;1.83;;
37805;SDS011;25082;50.870;0.022;2022-08-25T15:55:59;4.43;;;1.60;;
37805;SDS011;25082;50.870;0.022;2022-08-25T15:58:25;3.45;;;1.50;;
37805;SDS011;25082;50.870;0.022;2022-08-25T16:00:51;2.50;;;1.65;;
37805;SDS011;25082;50.870;0.022;2022-08-25T16:03:17;4.55;;;1.88;;
37805;SDS011;25082;50.870;0.022;2022-08-25T16:05:44;5.70;;;2.33;;
37805;SDS011;25082;50.870;0.022;2022-08-25T16:08:10;3.88;;;1.30;;
37805;SDS011;25082;50.870;0.022;2022-08-25T16:10:37;6.20;;;1.85;;
37805;SDS011;25082;50.870;0.022;2022-08-25T16:13:05;5.95;;;2.03;;
37805;SDS011;25082;50.870;0.022;2022-08-25T16:15:31;3.10;;;1.60;;
37805;SDS011;25082;50.870;0.022;2022-08-25T16:17:58;4.25;;;1.85;;
37805;SDS011;25082;50.870;0.022;2022-08-25T16:20:25;5.03;;;1.83;;
37805;SDS011;25082;50.870;0.022;2022-08-25T16:22:52;4.97;;;1.77;;
37805;SDS011;25082;50.870;0.022;2022-08-25T16:25:18;1.90;;;1.42;;
37805;SDS011;25082;50.870;0.022;2022-08-25T16:27:44;3.35;;;1.40;;
37805;SDS011;25082;50.870;0.022;2022-08-25T16:30:10;4.47;;;1.52;;
37805;SDS011;25082;50.870;0.022;2022-08-25T16:32:38;3.40;;;1.75;;
37805;SDS011;25082;50.870;0.022;2022-08-25T16:35:04;7.90;;;1.95;;
37805;SDS011;25082;50.870;0.022;2022-08-25T16:37:31;3.53;;;1.40;;
37805;SDS011;25082;50.870;0.022;2022-08-25T16:39:58;5.78;;;1.70;;
37805;SDS011;25082;50.870;0.022;2022-08-25T16:42:24;3.25;;;1.55;;
37805;SDS011;25082;50.870;0.022;2022-08-25T16:44:50;4.50;;;2.08;;
37805;SDS011;25082;50.870;0.022;2022-08-25T16:47:16;2.30;;;2.05;;
37805;SDS011;25082;50.870;0.022;2022-08-25T16:49:42;3.65;;;2.40;;
37805;SDS011;25082;50.870;0.022;2022-08-25T16:52:08;8.02;;;2.78;;
37805;SDS011;25082;50.870;0.022;2022-08-25T16:54:53;6.40;;;3.10;;
37805;SDS011;25082;50.870;0.022;2022-08-25T16:57:38;7.38;;;3.63;;
37805;SDS011;25082;50.870;0.022;2022-08-25T17:00:06;6.72;;;3.92;;
37805;SDS011;25082;50.870;0.022;2022-08-25T17:05:03;6.00;;;4.28;;
37805;SDS011;25082;50.870;0.022;2022-08-25T17:07:30;6.43;;;3.92;;
37805;SDS011;25082;50.870;0.022;2022-08-25T17:09:57;5.13;;;3.97;;
37805;SDS011;25082;50.870;0.022;2022-08-25T17:12:23;6.45;;;5.22;;
37805;SDS011;25082;50.870;0.022;2022-08-25T17:14:50;7.25;;;4.43;;